KVDI/VDI METAR and TAF weather

Enter ICAO airport designator
Station Type Date Time Source
KVDI METAR 2019/05/25 09:35 UTC NOAA

KVDI 250935Z AUTO 25003KT 10SM CLR 24/16 A3010 RMK AO2


Station Type Date Time Source
KVDI Decoded METAR 2019/05/25 09:35 UTC NOAA

Vidalia, Vidalia Municipal Airport, GA, United States (KVDI) 32-11-33N 082-22-19W
May 25, 2019 - 05:35 AM EDT / 2019.05.25 0935 UTC
Wind: from the WSW (250 degrees) at 3 MPH (3 KT):0
Visibility: 10 mile(s):0
Sky conditions: clear
Temperature: 75 F (24 C)
Dew Point: 60 F (16 C)
Relative Humidity: 60%
Pressure (altimeter): 30.1 in. Hg (1019 hPa)
ob: KVDI 250935Z AUTO 25003KT 10SM CLR 24/16 A3010 RMK AO2
cycle: 9

Station Type Date Time Source
KVDI TAF UTC NOAA

Error!

Example: see airport list